Time;durP1;ratioP1;P1;durP2;ratioP2;P2;SDS_P1;SDS_P2;PMS_P1;PMS_P2;Temp;Humidity;BMP_temperature;BMP_pressure;BME280_temperature;BME280_humidity;BME280_pressure;Samples;Min_cycle;Max_cycle;Signal;HPM_P1;HPM_P2
2021/11/16 00:01:59;;;;;;;0.20;0.20;;;5.50;99.90;;;;;;5034689;28;20057;-77
2021/11/16 00:04:25;;;;;;;0.50;0.50;;;5.50;99.90;;;;;;5034573;28;20013;-80
2021/11/16 00:06:52;;;;;;;0.20;0.20;;;5.60;99.90;;;;;;5049821;28;20067;-78
2021/11/16 00:09:18;;;;;;;0.20;0.20;;;5.60;99.90;;;;;;5034437;28;20036;-77
2021/11/16 00:11:44;;;;;;;0.20;0.20;;;5.70;99.90;;;;;;5049803;28;20068;-77
2021/11/16 00:14:10;;;;;;;0.40;0.40;;;5.80;99.90;;;;;;5033241;28;20053;-77
2021/11/16 00:16:37;;;;;;;3.15;1.15;;;5.70;99.90;;;;;;5049612;28;20041;-77
2021/11/16 00:19:07;;;;;;;5.88;1.08;;;5.60;99.90;;;;;;5032981;28;20052;-78
2021/11/16 00:21:33;;;;;;;0.25;0.25;;;5.50;99.90;;;;;;5033140;28;20025;-77
2021/11/16 00:24:03;;;;;;;0.35;0.35;;;5.50;99.90;;;;;;5034229;28;20033;-76
2021/11/16 00:26:29;;;;;;;0.20;0.20;;;5.60;99.90;;;;;;5034261;28;20032;-76
2021/11/16 00:28:55;;;;;;;0.35;0.35;;;5.70;99.90;;;;;;5049444;28;20045;-77
2021/11/16 00:31:21;;;;;;;0.20;0.20;;;5.70;99.90;;;;;;5034087;28;20080;-77
2021/11/16 00:33:48;;;;;;;0.20;0.20;;;5.70;99.90;;;;;;5032827;28;20025;-79
2021/11/16 00:36:15;;;;;;;2.67;2.55;;;5.70;99.90;;;;;;5048669;28;20521;-77
2021/11/16 00:38:42;;;;;;;1.35;0.73;;;5.70;99.90;;;;;;5033888;28;20100;-77
2021/11/16 00:41:08;;;;;;;0.38;0.38;;;5.70;99.90;;;;;;5049183;28;20029;-77
2021/11/16 00:43:34;;;;;;;0.20;0.20;;;5.50;99.90;;;;;;5033805;28;20052;-77
2021/11/16 00:46:01;;;;;;;0.20;0.20;;;5.40;99.90;;;;;;5033627;28;20057;-77
2021/11/16 00:48:27;;;;;;;0.20;0.20;;;5.50;99.90;;;;;;5033912;28;20100;-77
2021/11/16 00:50:56;;;;;;;1.33;1.23;;;5.50;99.90;;;;;;5033569;28;20030;-77
2021/11/16 00:53:25;;;;;;;0.20;0.20;;;5.30;99.90;;;;;;5033739;28;20026;-77
2021/11/16 00:55:51;;;;;;;0.30;0.30;;;5.30;99.90;;;;;;5032273;28;20036;-77
2021/11/16 00:58:18;;;;;;;0.13;0.13;;;5.40;99.90;;;;;;5031985;28;20030;-77
2021/11/16 01:00:43;;;;;;;0.30;0.30;;;5.50;99.90;;;;;;5033411;28;20370;-76
2021/11/16 01:03:13;;;;;;;0.30;0.30;;;5.60;99.90;;;;;;5033469;28;20025;-77
2021/11/16 01:05:40;;;;;;;0.35;0.35;;;5.60;99.90;;;;;;5033382;28;20021;-77
2021/11/16 01:08:07;;;;;;;1.05;0.40;;;5.40;99.90;;;;;;5033459;28;20607;-77
2021/11/16 01:10:34;;;;;;;2.33;2.22;;;5.20;99.90;;;;;;5031986;28;20028;-77
2021/11/16 01:13:00;;;;;;;0.30;0.30;;;5.20;99.90;;;;;;5033403;28;20029;-77
2021/11/16 01:15:26;;;;;;;0.20;0.20;;;5.20;99.90;;;;;;5033168;28;20033;-77
2021/11/16 01:17:52;;;;;;;0.20;0.20;;;5.30;99.90;;;;;;5031900;28;20021;-77
2021/11/16 01:20:21;;;;;;;0.20;0.20;;;5.20;99.90;;;;;;5033045;28;20466;-77
2021/11/16 01:22:51;;;;;;;0.20;0.20;;;5.20;99.90;;;;;;5031959;28;20075;-77
2021/11/16 01:25:18;;;;;;;0.10;0.10;;;5.20;99.90;;;;;;5033157;28;20075;-76
2021/11/16 01:27:44;;;;;;;0.82;0.77;;;5.20;99.90;;;;;;5033098;28;20060;-76
2021/11/16 01:30:14;;;;;;;0.20;0.20;;;5.20;99.90;;;;;;5032970;28;20025;-76
2021/11/16 01:32:46;;;;;;;0.20;0.20;;;5.30;99.90;;;;;;5031724;28;20037;-77
2021/11/16 01:35:13;;;;;;;0.20;0.20;;;5.30;99.90;;;;;;5032792;28;20501;-77
2021/11/16 01:37:40;;;;;;;0.75;0.75;;;5.20;99.90;;;;;;5032763;28;20094;-78
2021/11/16 01:40:10;;;;;;;0.20;0.20;;;5.00;99.90;;;;;;5032783;28;20064;-77
2021/11/16 01:42:36;;;;;;;0.20;0.20;;;5.00;99.90;;;;;;5033013;28;20018;-77
2021/11/16 01:45:04;;;;;;;0.20;0.20;;;5.20;99.90;;;;;;5032582;28;20417;-77
2021/11/16 01:47:30;;;;;;;0.60;0.60;;;5.10;99.90;;;;;;5047562;28;20476;-77
2021/11/16 01:49:56;;;;;;;0.20;0.20;;;5.20;99.90;;;;;;5032359;28;20025;-77
2021/11/16 01:52:21;;;;;;;0.20;0.20;;;5.20;99.90;;;;;;5032516;28;20036;-77
2021/11/16 01:54:47;;;;;;;0.20;0.20;;;5.40;99.90;;;;;;5032409;28;20155;-78
2021/11/16 01:57:13;;;;;;;0.10;0.10;;;5.50;99.90;;;;;;5032237;28;20026;-77
2021/11/16 01:59:39;;;;;;;0.20;0.20;;;5.50;99.90;;;;;;5032440;28;20048;-77
2021/11/16 02:02:05;;;;;;;0.20;0.20;;;5.50;99.90;;;;;;5032533;28;20485;-76
2021/11/16 02:04:32;;;;;;;0.55;0.52;;;5.40;99.90;;;;;;5032257;28;20022;-78
2021/11/16 02:06:59;;;;;;;0.47;0.47;;;5.40;99.90;;;;;;5032278;28;20029;-77
2021/11/16 02:09:25;;;;;;;0.20;0.20;;;5.00;99.90;;;;;;5031173;28;20033;-77
2021/11/16 02:11:51;;;;;;;4.75;4.32;;;5.20;99.90;;;;;;5032447;28;20060;-77
2021/11/16 02:14:17;;;;;;;1.33;0.55;;;5.30;99.90;;;;;;5032368;28;20049;-77
2021/11/16 02:16:45;;;;;;;1.17;1.17;;;5.50;99.90;;;;;;5047323;28;20536;-77
2021/11/16 02:19:14;;;;;;;0.20;0.20;;;5.40;99.90;;;;;;5032163;28;20048;-77
2021/11/16 02:21:40;;;;;;;0.20;0.20;;;5.50;99.90;;;;;;5032311;28;20032;-78
2021/11/16 02:24:07;;;;;;;0.17;0.17;;;5.50;99.90;;;;;;5032248;28;20026;-77
2021/11/16 02:26:34;;;;;;;0.20;0.20;;;5.40;99.90;;;;;;5047663;28;20088;-77
2021/11/16 02:29:02;;;;;;;3.72;2.17;;;5.40;99.90;;;;;;5032095;28;20017;-77
2021/11/16 02:31:30;;;;;;;4.28;0.98;;;5.40;99.90;;;;;;5031991;28;20080;-77
2021/11/16 02:33:56;;;;;;;1.23;1.20;;;5.20;99.90;;;;;;5032006;28;20029;-77
2021/11/16 02:36:26;;;;;;;1.30;1.30;;;5.00;99.90;;;;;;5031829;28;20489;-77
2021/11/16 02:38:53;;;;;;;0.10;0.10;;;4.90;99.90;;;;;;5032085;28;20018;-77
2021/11/16 02:41:19;;;;;;;0.20;0.20;;;5.00;99.90;;;;;;5031957;28;20018;-77
2021/11/16 02:43:46;;;;;;;0.22;0.22;;;5.20;99.90;;;;;;5047395;28;20029;-77
2021/11/16 02:46:12;;;;;;;0.20;0.20;;;5.40;99.90;;;;;;5031906;28;20037;-76
2021/11/16 02:48:38;;;;;;;0.20;0.20;;;5.50;99.90;;;;;;5031992;28;20096;-76
2021/11/16 02:51:08;;;;;;;0.20;0.20;;;5.50;99.90;;;;;;5030668;28;20420;-77
2021/11/16 02:53:39;;;;;;;0.10;0.10;;;5.60;99.90;;;;;;5032001;28;20021;-78
2021/11/16 02:56:06;;;;;;;1.52;1.42;;;5.50;99.90;;;;;;5031856;28;20029;-77
2021/11/16 02:58:33;;;;;;;0.13;0.13;;;5.40;99.90;;;;;;5031779;28;20025;-76
2021/11/16 03:01:07;;;;;;;0.20;0.20;;;5.40;99.90;;;;;;5035258;28;20029;-77
2021/11/16 03:03:35;;;;;;;0.20;0.20;;;5.40;99.90;;;;;;5035611;28;20075;-77
2021/11/16 03:06:01;;;;;;;2.50;1.20;;;5.50;99.90;;;;;;5035321;28;20021;-78
2021/11/16 03:08:28;;;;;;;0.25;0.25;;;5.50;99.90;;;;;;5035487;28;20033;-77
2021/11/16 03:11:00;;;;;;;0.13;0.13;;;5.40;99.90;;;;;;5035458;28;20032;-77
2021/11/16 03:13:29;;;;;;;0.40;0.40;;;5.30;99.90;;;;;;5035451;28;20036;-77
2021/11/16 03:15:55;;;;;;;0.30;0.30;;;5.30;99.90;;;;;;5034075;28;20057;-78
2021/11/16 03:18:22;;;;;;;0.40;0.40;;;5.20;99.90;;;;;;5035210;28;20076;-77
2021/11/16 03:20:48;;;;;;;0.20;0.20;;;5.30;99.90;;;;;;5033870;28;20477;-77
2021/11/16 03:23:20;;;;;;;0.20;0.20;;;5.20;99.90;;;;;;5033909;28;20098;-77
2021/11/16 03:25:51;;;;;;;0.20;0.20;;;5.20;99.90;;;;;;5035056;28;20025;-78
2021/11/16 03:28:18;;;;;;;0.20;0.20;;;5.30;99.90;;;;;;5035239;28;20030;-77
2021/11/16 03:30:48;;;;;;;2.53;1.98;;;5.40;99.90;;;;;;5035072;28;20049;-76
2021/11/16 03:33:14;;;;;;;0.10;0.10;;;5.40;99.90;;;;;;5033809;28;20059;-77
2021/11/16 03:35:41;;;;;;;0.20;0.20;;;5.30;99.90;;;;;;5034709;28;20531;-77
2021/11/16 03:38:09;;;;;;;1.40;1.10;;;5.20;99.90;;;;;;5034936;28;20057;-77
2021/11/16 03:40:36;;;;;;;2.70;2.50;;;5.00;99.90;;;;;;5033649;28;20029;-77
2021/11/16 03:43:04;;;;;;;2.72;2.55;;;5.00;99.90;;;;;;5034875;28;20501;-77
2021/11/16 03:45:30;;;;;;;0.30;0.30;;;5.00;99.90;;;;;;5034650;28;20488;-78
2021/11/16 03:47:58;;;;;;;0.77;0.77;;;4.90;99.90;;;;;;5034687;28;20034;-77
2021/11/16 03:50:26;;;;;;;2.10;1.13;;;4.80;99.90;;;;;;5033359;28;20029;-78
2021/11/16 03:52:54;;;;;;;1.65;0.85;;;4.80;99.90;;;;;;5034694;28;20087;-77
2021/11/16 03:55:31;;;;;;;1.15;0.80;;;4.70;99.90;;;;;;5034573;28;20035;-77
2021/11/16 03:57:58;;;;;;;2.25;2.05;;;4.90;99.90;;;;;;5034494;28;20032;-76
2021/11/16 04:00:39;;;;;;;0.20;0.20;;;4.80;99.90;;;;;;5034531;28;20034;-78
2021/11/16 04:03:06;;;;;;;0.20;0.20;;;4.80;99.90;;;;;;5034454;28;20112;-77
2021/11/16 04:05:33;;;;;;;0.10;0.10;;;5.00;99.90;;;;;;5034353;28;20060;-76
2021/11/16 04:08:00;;;;;;;0.85;0.85;;;5.20;99.90;;;;;;5034419;28;20075;-76
2021/11/16 04:10:26;;;;;;;1.85;1.38;;;5.10;99.90;;;;;;5032609;28;20052;-77
2021/11/16 04:12:52;;;;;;;1.38;0.63;;;5.10;99.90;;;;;;5034038;28;20029;-77
2021/11/16 04:15:22;;;;;;;1.85;0.95;;;4.90;99.90;;;;;;5034037;28;20064;-77
2021/11/16 04:17:52;;;;;;;0.20;0.20;;;4.80;99.90;;;;;;5033993;28;20030;-77
2021/11/16 04:20:36;;;;;;;0.20;0.20;;;4.90;99.90;;;;;;5034319;28;20039;-76
2021/11/16 04:23:05;;;;;;;0.10;0.10;;;4.80;99.90;;;;;;5016235;28;20018;-76
2021/11/16 04:25:32;;;;;;;0.28;0.28;;;4.90;99.90;;;;;;5049204;28;20022;-76
2021/11/16 04:27:59;;;;;;;0.20;0.20;;;4.90;99.90;;;;;;5033904;28;20389;-78
2021/11/16 04:30:26;;;;;;;0.10;0.10;;;5.00;99.90;;;;;;5032626;28;20026;-77
2021/11/16 04:32:53;;;;;;;0.20;0.20;;;5.00;99.90;;;;;;5049129;28;20476;-77
2021/11/16 04:35:19;;;;;;;2.65;0.95;;;5.20;99.90;;;;;;5015647;28;20037;-78
2021/11/16 04:37:47;;;;;;;1.25;1.15;;;5.10;99.90;;;;;;5033653;28;20036;-78
2021/11/16 04:40:16;;;;;;;0.13;0.13;;;5.20;99.90;;;;;;5048939;28;20338;-77
2021/11/16 04:42:43;;;;;;;0.38;0.38;;;5.10;99.90;;;;;;5033707;28;20096;-77
2021/11/16 04:45:14;;;;;;;0.10;0.10;;;5.10;99.90;;;;;;5048780;28;20025;-78
2021/11/16 04:50:19;;;;;;;0.57;0.50;;;5.20;99.90;;;;;;5048859;28;20504;-78
2021/11/16 04:53:06;;;;;;;0.17;0.17;;;5.30;99.90;;;;;;5032392;28;20385;-77
2021/11/16 05:03:43;;;;;;;0.20;0.20;;;5.10;99.90;;;;;;5033214;28;20049;-77
2021/11/16 05:06:09;;;;;;;0.65;0.65;;;5.20;99.90;;;;;;5033077;28;20144;-77
2021/11/16 05:08:37;;;;;;;0.20;0.20;;;5.30;99.90;;;;;;5033150;28;20433;-77
2021/11/16 05:11:03;;;;;;;5.18;2.08;;;5.30;99.90;;;;;;5033034;28;20508;-77
2021/11/16 05:13:28;;;;;;;0.17;0.17;;;5.30;99.90;;;;;;5033162;28;20029;-77
2021/11/16 05:15:54;;;;;;;1.00;0.75;;;5.20;99.90;;;;;;5032930;28;20041;-77
2021/11/16 05:18:20;;;;;;;2.15;1.00;;;5.00;99.90;;;;;;5048279;28;20389;-77
2021/11/16 05:20:45;;;;;;;0.73;0.73;;;5.00;99.90;;;;;;5033005;28;20021;-77
2021/11/16 05:23:12;;;;;;;0.28;0.28;;;4.90;99.90;;;;;;5030838;28;20029;-77
2021/11/16 05:25:38;;;;;;;1.27;0.95;;;4.70;99.90;;;;;;5032742;28;20021;-77
2021/11/16 05:28:07;;;;;;;0.30;0.30;;;4.50;99.90;;;;;;5048198;28;20362;-77
2021/11/16 05:30:35;;;;;;;0.80;0.63;;;4.40;99.90;;;;;;5032735;28;20026;-76
2021/11/16 05:33:01;;;;;;;0.90;0.90;;;4.30;99.90;;;;;;5032737;28;20076;-77
2021/11/16 05:35:26;;;;;;;0.20;0.20;;;4.30;99.90;;;;;;5030242;23;20049;-76
2021/11/16 05:37:52;;;;;;;0.20;0.20;;;4.30;99.90;;;;;;5010989;28;20045;-76
2021/11/16 05:40:18;;;;;;;1.58;1.48;;;4.40;99.90;;;;;;5011060;28;20025;-77
2021/11/16 05:42:44;;;;;;;1.02;0.95;;;4.30;99.90;;;;;;4994859;28;20025;-76
2021/11/16 05:45:10;;;;;;;0.35;0.32;;;4.30;99.90;;;;;;5012271;28;20052;-76
2021/11/16 05:47:38;;;;;;;0.20;0.20;;;4.30;99.90;;;;;;5010964;28;20030;-77
2021/11/16 05:50:05;;;;;;;4.57;2.95;;;4.30;99.90;;;;;;5011092;28;20036;-76
2021/11/16 05:52:31;;;;;;;0.40;0.40;;;4.30;99.90;;;;;;5012277;28;20144;-76
2021/11/16 05:54:57;;;;;;;0.30;0.30;;;4.30;99.90;;;;;;5011097;28;20022;-75
2021/11/16 05:57:23;;;;;;;0.20;0.20;;;4.30;99.90;;;;;;5010677;28;20444;-76
2021/11/16 05:59:49;;;;;;;0.20;0.20;;;4.50;99.90;;;;;;5012062;28;20049;-76
2021/11/16 06:02:15;;;;;;;0.65;0.63;;;4.50;99.90;;;;;;5010590;28;20397;-75
2021/11/16 06:04:41;;;;;;;0.20;0.20;;;4.50;99.90;;;;;;5011894;28;20022;-76
2021/11/16 06:07:08;;;;;;;0.75;0.75;;;4.60;99.90;;;;;;5011976;28;20028;-76
2021/11/16 06:09:34;;;;;;;0.20;0.20;;;4.60;99.90;;;;;;4994300;28;20516;-76
2021/11/16 06:12:02;;;;;;;0.20;0.20;;;4.70;99.90;;;;;;5010744;28;20026;-76
2021/11/16 06:14:28;;;;;;;4.40;1.27;;;4.80;99.90;;;;;;5011916;28;20452;-76
2021/11/16 06:16:55;;;;;;;0.20;0.20;;;4.80;99.90;;;;;;5010761;28;20501;-76
2021/11/16 06:19:24;;;;;;;2.00;1.83;;;4.80;99.90;;;;;;5011990;28;20053;-75
2021/11/16 06:21:51;;;;;;;0.75;0.75;;;4.70;99.90;;;;;;5010578;28;20049;-76
2021/11/16 06:24:16;;;;;;;1.13;1.02;;;4.60;99.90;;;;;;5010687;28;20030;-76
2021/11/16 06:26:42;;;;;;;0.20;0.20;;;4.70;99.90;;;;;;4994195;28;20493;-76
2021/11/16 06:29:08;;;;;;;0.20;0.20;;;4.70;99.90;;;;;;5011831;28;20022;-76
2021/11/16 06:31:35;;;;;;;0.40;0.40;;;4.70;99.90;;;;;;5012022;28;20105;-76
2021/11/16 06:34:03;;;;;;;1.90;1.80;;;4.80;99.90;;;;;;5012236;28;20088;-76
2021/11/16 06:36:41;;;;;;;2.50;1.67;;;4.80;99.90;;;;;;4998048;28;20117;-76
2021/11/16 06:39:14;;;;;;;0.88;0.75;;;4.70;99.90;;;;;;5014625;28;20425;-76
2021/11/16 06:41:41;;;;;;;2.45;1.30;;;4.60;99.90;;;;;;5014397;28;20026;-76
2021/11/16 06:44:09;;;;;;;0.50;0.50;;;4.70;99.90;;;;;;5013693;28;20076;-77
2021/11/16 06:46:36;;;;;;;0.20;0.20;;;4.60;99.90;;;;;;5023352;28;20017;-76
2021/11/16 06:49:04;;;;;;;1.55;1.38;;;4.50;99.90;;;;;;5015213;28;20156;-76
2021/11/16 06:51:36;;;;;;;0.30;0.30;;;4.30;99.90;;;;;;5015256;28;20148;-76
2021/11/16 06:54:07;;;;;;;0.20;0.20;;;4.30;99.90;;;;;;4995819;28;20064;-76
2021/11/16 06:56:33;;;;;;;1.47;0.93;;;4.40;99.90;;;;;;4996355;28;20486;-76
2021/11/16 06:58:59;;;;;;;2.97;2.58;;;4.40;99.90;;;;;;5010635;28;20025;-76
2021/11/16 07:01:26;;;;;;;0.25;0.25;;;4.20;99.90;;;;;;5016967;28;20025;-76
2021/11/16 07:03:52;;;;;;;0.55;0.55;;;4.30;99.90;;;;;;5033792;28;20017;-75
2021/11/16 07:06:18;;;;;;;1.10;1.02;;;4.30;99.90;;;;;;5029606;28;20033;-77
2021/11/16 07:08:45;;;;;;;5.32;1.42;;;4.40;99.90;;;;;;5014956;28;20096;-76
2021/11/16 07:11:20;;;;;;;0.50;0.50;;;4.40;99.90;;;;;;5013543;28;20034;-76
2021/11/16 07:14:11;;;;;;;0.15;0.15;;;4.60;99.90;;;;;;5014921;28;20083;-76
2021/11/16 07:16:41;;;;;;;0.40;0.40;;;4.60;99.90;;;;;;5012982;28;20485;-76
2021/11/16 07:19:09;;;;;;;0.68;0.68;;;4.50;99.90;;;;;;5012249;28;20045;-76
2021/11/16 07:21:48;;;;;;;0.10;0.10;;;4.60;99.90;;;;;;5012959;28;20022;-76
2021/11/16 07:24:18;;;;;;;3.00;0.95;;;4.70;99.90;;;;;;5013416;28;20152;-77
2021/11/16 07:26:53;;;;;;;0.52;0.52;;;4.70;99.90;;;;;;5014866;28;20029;-76
2021/11/16 07:29:42;;;;;;;0.60;0.60;;;4.80;99.90;;;;;;5013424;28;20029;-76
2021/11/16 07:32:10;;;;;;;0.20;0.20;;;4.60;99.90;;;;;;5013420;28;20049;-76
2021/11/16 07:34:38;;;;;;;0.60;0.47;;;4.60;99.90;;;;;;5014421;28;20030;-76
2021/11/16 07:37:18;;;;;;;2.50;1.30;;;4.60;99.90;;;;;;5014623;28;20112;-76
2021/11/16 07:39:51;;;;;;;0.25;0.25;;;4.50;99.90;;;;;;5013378;28;20508;-76
2021/11/16 07:42:19;;;;;;;0.20;0.20;;;4.60;99.90;;;;;;5014559;28;20018;-77
2021/11/16 07:45:10;;;;;;;0.20;0.20;;;4.70;99.90;;;;;;5020136;28;20052;-77
2021/11/16 07:47:43;;;;;;;0.10;0.10;;;4.90;99.90;;;;;;5029513;28;20025;-76
2021/11/16 07:50:15;;;;;;;0.40;0.40;;;4.90;99.90;;;;;;5012891;28;20037;-76
2021/11/16 07:52:45;;;;;;;0.90;0.90;;;5.20;99.90;;;;;;5021563;28;20021;-77
2021/11/16 07:55:24;;;;;;;2.10;0.95;;;5.40;99.90;;;;;;5032604;28;20091;-76
2021/11/16 07:57:50;;;;;;;0.20;0.20;;;5.20;99.90;;;;;;5033876;28;20018;-76
2021/11/16 08:00:21;;;;;;;0.52;0.52;;;5.30;99.90;;;;;;5032576;28;20030;-76
2021/11/16 08:02:52;;;;;;;0.23;0.23;;;5.40;99.90;;;;;;5011304;28;20057;-77
2021/11/16 08:12:01;;;;;;;2.28;1.17;;;5.10;99.90;;;;;;5013700;28;20022;-76
2021/11/16 08:14:17;;;;;;;0.55;0.55;;;5.20;99.90;;;;;;5010386;28;20493;-77
2021/11/16 08:16:57;;;;;;;1.85;1.75;;;5.40;99.90;;;;;;5012239;28;20504;-75
2021/11/16 08:19:34;;;;;;;0.52;0.52;;;5.40;99.90;;;;;;5013664;28;20405;-76
2021/11/16 08:22:07;;;;;;;0.20;0.20;;;5.40;99.90;;;;;;4995895;28;20449;-77
2021/11/16 08:24:36;;;;;;;0.22;0.22;;;5.50;99.90;;;;;;5012072;28;20429;-76
2021/11/16 08:27:08;;;;;;;0.57;0.57;;;5.50;99.90;;;;;;5013466;28;20106;-76
2021/11/16 08:29:38;;;;;;;0.20;0.20;;;5.60;99.90;;;;;;5012381;28;20026;-76
2021/11/16 08:32:13;;;;;;;0.20;0.20;;;5.60;99.90;;;;;;5013595;28;20371;-76
2021/11/16 08:34:43;;;;;;;0.20;0.20;;;5.50;99.90;;;;;;5011845;28;20537;-76
2021/11/16 08:37:11;;;;;;;0.20;0.20;;;5.50;99.90;;;;;;5013524;28;20022;-76
2021/11/16 08:39:59;;;;;;;0.68;0.68;;;5.50;99.90;;;;;;5013319;28;20049;-76
2021/11/16 08:42:41;;;;;;;0.20;0.20;;;5.60;99.90;;;;;;5012006;28;20022;-76
2021/11/16 08:45:17;;;;;;;0.20;0.20;;;5.70;99.90;;;;;;4995569;28;20096;-76
2021/11/16 08:48:04;;;;;;;0.20;0.20;;;5.70;99.90;;;;;;5013161;28;20446;-76
2021/11/16 08:50:35;;;;;;;0.20;0.20;;;5.60;99.90;;;;;;5011587;28;20021;-76
2021/11/16 08:53:09;;;;;;;0.20;0.20;;;5.70;99.90;;;;;;5011799;28;20152;-76
2021/11/16 08:55:38;;;;;;;0.20;0.20;;;5.80;99.90;;;;;;5011316;28;20033;-76
2021/11/16 08:58:07;;;;;;;0.93;0.93;;;5.70;99.90;;;;;;5001461;28;20513;-76
2021/11/16 09:00:44;;;;;;;0.20;0.20;;;5.70;99.90;;;;;;5012386;28;20033;-76
2021/11/16 09:03:13;;;;;;;0.70;0.70;;;5.70;99.90;;;;;;5012211;28;20030;-76
2021/11/16 09:05:48;;;;;;;0.20;0.20;;;5.70;99.90;;;;;;4994789;28;20366;-77
2021/11/16 09:08:26;;;;;;;0.25;0.25;;;5.70;99.90;;;;;;5011181;28;20062;-76
2021/11/16 09:10:58;;;;;;;0.20;0.20;;;5.60;99.90;;;;;;5012405;28;20030;-76
2021/11/16 09:13:29;;;;;;;0.30;0.30;;;5.50;99.90;;;;;;5011176;28;20030;-76
2021/11/16 09:16:19;;;;;;;0.20;0.20;;;5.60;99.90;;;;;;5011015;28;20037;-76
2021/11/16 09:18:52;;;;;;;0.73;0.73;;;5.70;99.90;;;;;;5012248;28;20113;-76
2021/11/16 09:21:21;;;;;;;0.20;0.20;;;5.70;99.90;;;;;;5010754;28;20029;-76
2021/11/16 09:23:50;;;;;;;1.05;0.88;;;5.70;99.90;;;;;;5010976;28;20030;-76
2021/11/16 09:29:03;;;;;;;4.68;2.40;;;5.70;99.90;;;;;;5012117;28;20030;-76
2021/11/16 09:31:35;;;;;;;0.20;0.20;;;5.60;99.90;;;;;;5010542;28;20030;-76
2021/11/16 09:34:02;;;;;;;0.30;0.30;;;5.60;99.90;;;;;;5010583;28;20606;-76
2021/11/16 09:36:37;;;;;;;0.20;0.20;;;5.60;99.90;;;;;;4994395;28;20428;-76
2021/11/16 09:39:18;;;;;;;0.40;0.40;;;5.60;99.90;;;;;;5011871;28;20196;-76
2021/11/16 09:41:54;;;;;;;0.20;0.20;;;5.80;99.90;;;;;;5010716;28;20033;-76
2021/11/16 09:44:41;;;;;;;0.45;0.45;;;5.70;99.90;;;;;;5011963;28;20072;-76
2021/11/16 09:47:23;;;;;;;0.38;0.38;;;5.60;99.90;;;;;;5011942;28;20148;-76
2021/11/16 09:50:24;;;;;;;0.20;0.20;;;5.60;99.90;;;;;;4994362;28;20048;-76
2021/11/16 09:52:59;;;;;;;1.45;0.75;;;5.80;99.90;;;;;;5010045;28;20046;-76
2021/11/16 09:55:37;;;;;;;1.35;1.35;;;5.80;99.90;;;;;;5011299;28;20516;-76
2021/11/16 09:58:07;;;;;;;0.45;0.45;;;5.90;99.90;;;;;;5010111;28;20022;-76
2021/11/16 10:00:41;;;;;;;0.30;0.30;;;5.80;99.90;;;;;;5011140;28;20053;-76
2021/11/16 10:03:13;;;;;;;0.70;0.70;;;5.80;99.90;;;;;;5010567;28;20432;-75
2021/11/16 10:05:54;;;;;;;0.63;0.63;;;5.90;99.90;;;;;;5010198;28;20026;-76
2021/11/16 10:08:22;;;;;;;0.30;0.30;;;5.90;99.90;;;;;;5011389;28;20339;-76
2021/11/16 10:10:51;;;;;;;0.30;0.30;;;5.70;99.90;;;;;;5009663;28;20026;-76
2021/11/16 10:13:21;;;;;;;0.20;0.20;;;5.60;99.90;;;;;;5011309;28;20026;-76
2021/11/16 10:15:50;;;;;;;0.20;0.20;;;5.60;99.90;;;;;;5009853;28;20030;-76
2021/11/16 10:18:17;;;;;;;0.30;0.30;;;5.70;99.90;;;;;;5011389;28;20539;-76
2021/11/16 10:20:46;;;;;;;0.20;0.20;;;5.70;99.90;;;;;;5009865;28;20393;-76
2021/11/16 10:23:15;;;;;;;0.20;0.20;;;5.80;99.90;;;;;;5010424;28;20387;-76
2021/11/16 10:25:53;;;;;;;1.20;1.10;;;5.90;99.90;;;;;;5011363;28;20025;-76
2021/11/16 10:28:19;;;;;;;0.20;0.20;;;5.90;99.90;;;;;;5010162;28;20022;-77
2021/11/16 10:30:46;;;;;;;0.20;0.20;;;6.00;99.90;;;;;;5010186;28;20022;-76
2021/11/16 10:33:19;;;;;;;0.60;0.60;;;6.00;99.90;;;;;;5011240;28;20080;-76
2021/11/16 10:35:59;;;;;;;0.15;0.15;;;6.00;99.90;;;;;;5009738;28;20042;-76
2021/11/16 10:38:45;;;;;;;0.40;0.40;;;5.90;99.90;;;;;;5011209;28;20036;-76
2021/11/16 10:41:21;;;;;;;0.50;0.50;;;5.90;99.90;;;;;;5011245;28;20022;-76
2021/11/16 10:44:11;;;;;;;0.20;0.20;;;5.80;99.90;;;;;;5026441;28;20711;-76
2021/11/16 10:46:41;;;;;;;0.20;0.20;;;5.60;99.90;;;;;;5010519;28;20493;-76
2021/11/16 10:49:12;;;;;;;0.20;0.20;;;5.60;99.90;;;;;;5009948;28;20076;-76
2021/11/16 10:51:40;;;;;;;0.20;0.20;;;5.70;99.90;;;;;;5026709;28;20033;-76
2021/11/16 10:54:09;;;;;;;0.20;0.20;;;5.70;99.90;;;;;;5009525;28;20393;-76
2021/11/16 10:56:37;;;;;;;0.10;0.10;;;5.90;99.90;;;;;;5010786;28;20022;-77
2021/11/16 10:59:16;;;;;;;0.20;0.20;;;6.00;99.90;;;;;;5011101;28;20030;-76
2021/11/16 11:01:46;;;;;;;0.20;0.20;;;6.00;99.90;;;;;;5011254;28;20054;-76
2021/11/16 11:04:13;;;;;;;4.80;2.45;;;5.80;99.90;;;;;;5009581;28;20026;-76
2021/11/16 11:06:43;;;;;;;0.73;0.73;;;5.50;99.90;;;;;;5009248;28;20052;-76
2021/11/16 11:09:09;;;;;;;0.20;0.20;;;5.30;99.90;;;;;;4993257;28;20030;-76
2021/11/16 11:11:36;;;;;;;1.75;0.40;;;5.30;99.90;;;;;;5010848;28;20026;-76
2021/11/16 11:14:10;;;;;;;0.20;0.20;;;5.40;99.90;;;;;;5009587;28;20080;-76
2021/11/16 11:17:11;;;;;;;0.20;0.20;;;5.60;99.90;;;;;;5010879;28;20022;-76
2021/11/16 11:19:40;;;;;;;0.30;0.30;;;5.60;99.90;;;;;;5028519;28;20018;-76
2021/11/16 11:22:21;;;;;;;0.75;0.75;;;5.90;99.90;;;;;;5013097;28;20056;-76
2021/11/16 11:27:30;;;;;;;0.28;0.28;;;6.00;99.90;;;;;;5014685;28;20037;-77
2021/11/16 11:30:01;;;;;;;0.32;0.32;;;6.10;99.90;;;;;;5014461;28;20037;-76
2021/11/16 11:32:36;;;;;;;0.20;0.20;;;5.90;99.90;;;;;;5013246;28;20026;-76
2021/11/16 11:35:13;;;;;;;0.30;0.30;;;5.60;99.90;;;;;;5012375;28;20045;-76
2021/11/16 11:37:42;;;;;;;0.20;0.20;;;5.70;99.90;;;;;;5000201;28;20077;-76
2021/11/16 11:40:08;;;;;;;0.40;0.40;;;5.90;99.90;;;;;;4994469;28;20025;-76
2021/11/16 11:42:59;;;;;;;0.60;0.60;;;5.90;99.90;;;;;;5012022;28;20197;-77
2021/11/16 11:45:34;;;;;;;0.20;0.20;;;5.90;99.90;;;;;;5012689;28;20030;-76
2021/11/16 11:48:02;;;;;;;0.65;0.65;;;6.00;99.90;;;;;;5013886;28;20029;-76
2021/11/16 11:50:33;;;;;;;1.67;0.70;;;6.00;99.90;;;;;;5012901;28;20026;-76
2021/11/16 11:53:02;;;;;;;2.42;1.63;;;5.90;99.90;;;;;;5050985;23;20048;-93
2021/11/16 11:55:29;;;;;;;1.55;1.30;;;5.70;99.90;;;;;;5010113;28;20029;-93
2021/11/16 11:57:55;;;;;;;0.75;0.50;;;5.50;99.90;;;;;;5016796;28;20452;-93
2021/11/16 12:00:23;;;;;;;1.25;0.85;;;5.60;99.90;;;;;;5017361;28;20064;-93
2021/11/16 12:02:51;;;;;;;0.20;0.20;;;5.50;99.90;;;;;;5015965;28;20050;-92
2021/11/16 12:05:17;;;;;;;0.20;0.20;;;5.50;99.90;;;;;;5016113;28;20068;-93
2021/11/16 12:07:44;;;;;;;2.97;0.75;;;5.60;99.90;;;;;;5017330;28;20026;-92
2021/11/16 12:10:09;;;;;;;0.35;0.35;;;5.50;99.90;;;;;;5027166;28;20048;-92
2021/11/16 12:12:35;;;;;;;0.20;0.20;;;5.40;99.90;;;;;;5022747;28;20072;-91
2021/11/16 12:15:08;;;;;;;0.20;0.20;;;5.50;99.90;;;;;;5014015;28;20511;-89
2021/11/16 12:17:46;;;;;;;0.38;0.38;;;5.80;99.90;;;;;;5014528;28;20034;-88
2021/11/16 12:20:54;;;;;;;0.88;0.43;;;6.00;99.90;;;;;;5013795;28;20026;-93
2021/11/16 12:23:47;;;;;;;6.22;2.65;;;6.10;99.90;;;;;;5014598;28;20111;-93
2021/11/16 12:26:16;;;;;;;0.25;0.25;;;5.90;99.90;;;;;;5016512;28;20050;-92
2021/11/16 12:28:46;;;;;;;0.20;0.20;;;5.90;99.90;;;;;;5014705;28;20056;-92
2021/11/16 12:31:24;;;;;;;0.63;0.63;;;5.70;99.90;;;;;;5014926;28;20026;-92
2021/11/16 12:33:50;;;;;;;0.20;0.20;;;5.70;99.90;;;;;;5014624;28;20040;-92
2021/11/16 12:36:31;;;;;;;0.20;0.20;;;5.80;99.90;;;;;;5014581;28;20037;-91
2021/11/16 12:39:13;;;;;;;0.30;0.30;;;5.90;99.90;;;;;;5000276;28;20460;-94
2021/11/16 12:41:43;;;;;;;0.30;0.30;;;5.90;99.90;;;;;;5030004;28;20041;-94
2021/11/16 12:44:17;;;;;;;0.10;0.10;;;6.10;99.90;;;;;;5023906;28;20041;-93
2021/11/16 12:47:06;;;;;;;0.28;0.28;;;6.20;99.90;;;;;;5022651;28;20075;-95
2021/11/16 12:49:39;;;;;;;0.20;0.20;;;6.10;99.90;;;;;;5022422;28;20026;-94
2021/11/16 12:52:09;;;;;;;0.20;0.20;;;6.20;99.90;;;;;;5022793;28;20029;-94
2021/11/16 12:54:45;;;;;;;3.20;2.17;;;6.30;99.90;;;;;;5021017;28;20390;-93
2021/11/16 12:57:17;;;;;;;3.88;1.23;;;6.20;99.90;;;;;;5023235;28;20053;-93
2021/11/16 13:02:33;;;;;;;0.20;0.20;;;6.00;99.90;;;;;;4990599;28;20050;-75
2021/11/16 13:05:08;;;;;;;4.38;0.47;;;6.00;99.90;;;;;;4992777;28;20097;-75
2021/11/16 13:07:36;;;;;;;0.20;0.20;;;5.90;99.90;;;;;;5007837;28;20113;-74
2021/11/16 13:10:02;;;;;;;3.03;2.22;;;5.90;99.90;;;;;;4992633;28;20033;-75
2021/11/16 13:12:43;;;;;;;2.72;1.35;;;5.90;99.90;;;;;;4991868;28;20034;-75
2021/11/16 13:15:25;;;;;;;0.88;0.88;;;5.80;99.90;;;;;;4993363;28;20114;-75
2021/11/16 13:17:52;;;;;;;0.30;0.30;;;5.70;99.90;;;;;;4993278;28;20027;-75
2021/11/16 13:20:46;;;;;;;0.35;0.35;;;5.80;99.90;;;;;;4993124;28;20490;-75
2021/11/16 13:23:14;;;;;;;1.10;0.88;;;5.90;99.90;;;;;;4993170;28;20026;-75
2021/11/16 13:25:50;;;;;;;0.28;0.28;;;6.10;99.90;;;;;;4993123;28;20029;-75
2021/11/16 13:31:12;;;;;;;0.40;0.40;;;6.20;99.90;;;;;;4991888;28;20034;-75
2021/11/16 13:34:10;;;;;;;0.20;0.20;;;6.20;99.90;;;;;;4993189;28;20389;-75
2021/11/16 13:36:35;;;;;;;0.35;0.35;;;6.20;99.90;;;;;;4992023;28;20033;-75
2021/11/16 13:39:10;;;;;;;0.82;0.82;;;6.20;99.90;;;;;;4991527;28;20034;-74
2021/11/16 13:42:00;;;;;;;0.20;0.20;;;6.00;99.90;;;;;;4993055;28;20031;-75
2021/11/16 13:44:43;;;;;;;0.25;0.25;;;5.90;99.90;;;;;;4992037;28;20397;-74